createdAt,value
2023-05-17T00:00:50.703Z,57.73
2023-05-17T00:03:17.864Z,57.65
2023-05-17T00:05:45.102Z,57.36
2023-05-17T00:08:12.779Z,56.98
2023-05-17T00:10:39.912Z,56.87
2023-05-17T00:13:07.073Z,56.66
2023-05-17T00:15:34.063Z,56.30
2023-05-17T00:18:01.346Z,56.01
2023-05-17T00:20:28.633Z,55.70
2023-05-17T00:22:55.761Z,55.44
2023-05-17T00:25:23.029Z,55.35
2023-05-17T00:27:50.264Z,54.92
2023-05-17T00:30:17.516Z,54.70
2023-05-17T00:32:47.123Z,54.62
2023-05-17T00:35:14.891Z,54.36
2023-05-17T00:37:47.898Z,54.05
2023-05-17T00:40:16.526Z,53.63
2023-05-17T00:42:43.708Z,53.31
2023-05-17T00:45:11.270Z,53.09
2023-05-17T00:47:38.503Z,52.76
2023-05-17T00:50:06.497Z,52.53
2023-05-17T00:52:33.605Z,52.34
2023-05-17T00:55:00.796Z,52.10
2023-05-17T00:57:29.598Z,51.97
2023-05-17T00:59:56.834Z,51.66
2023-05-17T01:02:24.741Z,51.47
2023-05-17T01:04:51.955Z,51.28
2023-05-17T01:07:19.307Z,51.11
2023-05-17T01:09:47.386Z,51.06
2023-05-17T01:12:39.305Z,51.06
2023-05-17T01:15:16.128Z,51.19
2023-05-17T01:18:06.210Z,51.33
2023-05-17T01:20:38.223Z,51.25
2023-05-17T01:23:23.498Z,51.27
2023-05-17T01:26:09.208Z,51.46
2023-05-17T01:28:41.668Z,51.60
2023-05-17T01:31:08.764Z,51.68
2023-05-17T01:33:37.780Z,51.64
2023-05-17T01:36:05.813Z,51.68
2023-05-17T01:38:32.821Z,51.57
2023-05-17T01:41:07.347Z,51.60
2023-05-17T01:43:52.679Z,51.50
2023-05-17T01:46:32.426Z,51.50
2023-05-17T01:49:11.578Z,51.44
2023-05-17T01:51:49.663Z,51.23
2023-05-17T01:54:21.233Z,51.34
2023-05-17T01:56:48.718Z,51.15
2023-05-17T01:59:16.171Z,50.98
2023-05-17T02:01:43.205Z,50.97
2023-05-17T02:04:10.675Z,50.86
2023-05-17T02:06:37.905Z,50.82
2023-05-17T02:09:05.015Z,50.72
2023-05-17T02:11:32.853Z,50.64
2023-05-17T02:13:59.859Z,50.49
2023-05-17T02:16:26.894Z,50.36
2023-05-17T02:18:53.928Z,50.26
2023-05-17T02:21:21.056Z,49.91
2023-05-17T02:23:48.099Z,49.58
2023-05-17T02:26:15.080Z,49.05
2023-05-17T02:28:42.087Z,48.77
2023-05-17T02:31:09.662Z,48.28
2023-05-17T02:33:37.676Z,47.87
2023-05-17T02:36:05.159Z,47.78
2023-05-17T02:38:32.188Z,47.70
2023-05-17T02:40:59.199Z,47.24
2023-05-17T02:43:26.231Z,46.95
2023-05-17T02:45:53.334Z,46.57
2023-05-17T02:48:20.450Z,46.20
2023-05-17T02:50:47.583Z,46.09
2023-05-17T02:53:14.604Z,45.52
2023-05-17T02:55:41.684Z,45.43
2023-05-17T02:58:08.822Z,44.96
2023-05-17T03:00:36.157Z,44.62
2023-05-17T03:03:03.296Z,44.18
2023-05-17T03:05:30.850Z,44.03
2023-05-17T03:07:57.967Z,43.84
2023-05-17T03:10:25.315Z,43.37
2023-05-17T03:12:52.426Z,43.18
2023-05-17T03:15:21.492Z,42.91
2023-05-17T03:17:48.651Z,42.69
2023-05-17T03:20:17.395Z,42.34
2023-05-17T03:22:46.028Z,42.24
2023-05-17T03:25:13.808Z,42.19
2023-05-17T03:27:41.006Z,42.08
2023-05-17T03:30:08.658Z,41.97
2023-05-17T03:32:39.288Z,42.17
2023-05-17T03:35:07.637Z,42.21
2023-05-17T03:37:35.454Z,42.41
2023-05-17T03:40:03.232Z,42.40
2023-05-17T03:42:30.749Z,42.76
2023-05-17T03:44:58.156Z,42.94
2023-05-17T03:47:25.894Z,43.41
2023-05-17T03:49:53.334Z,44.15
2023-05-17T03:52:20.476Z,44.83
2023-05-17T03:54:48.528Z,45.43
2023-05-17T03:57:16.566Z,46.35
2023-05-17T03:59:44.776Z,47.17
2023-05-17T04:02:11.944Z,48.06
2023-05-17T04:04:38.995Z,48.72
2023-05-17T04:07:06.731Z,49.33
2023-05-17T04:09:35.202Z,49.99
2023-05-17T04:12:02.308Z,50.73
2023-05-17T04:14:29.855Z,50.96
2023-05-17T04:16:58.068Z,51.15
2023-05-17T04:19:25.147Z,51.39
2023-05-17T04:21:52.852Z,51.63
2023-05-17T04:24:20.143Z,51.83
2023-05-17T04:26:47.231Z,51.94
2023-05-17T04:29:14.325Z,52.32
2023-05-17T04:31:41.309Z,52.48
2023-05-17T04:34:08.537Z,52.72
2023-05-17T04:36:35.869Z,52.83
2023-05-17T04:39:03.789Z,52.86
2023-05-17T04:41:32.089Z,52.92
2023-05-17T04:43:59.450Z,52.97
2023-05-17T04:46:31.307Z,53.16
2023-05-17T04:48:58.648Z,53.26
2023-05-17T04:51:27.211Z,53.37
2023-05-17T04:53:55.030Z,53.70
2023-05-17T04:56:22.857Z,54.04
2023-05-17T04:58:52.792Z,54.27
2023-05-17T05:01:20.136Z,54.40
2023-05-17T05:03:47.569Z,54.17
2023-05-17T05:06:16.409Z,53.99
2023-05-17T05:08:43.725Z,54.06
2023-05-17T05:11:11.592Z,54.16
2023-05-17T05:13:39.187Z,54.36
2023-05-17T05:16:06.784Z,54.30
2023-05-17T05:18:34.702Z,54.29
2023-05-17T05:21:02.553Z,54.31
2023-05-17T05:23:30.179Z,54.30
2023-05-17T05:25:57.198Z,54.28
2023-05-17T05:28:24.297Z,54.10
2023-05-17T05:30:51.431Z,54.20
2023-05-17T05:33:19.880Z,53.87
2023-05-17T05:35:47.485Z,53.50
2023-05-17T05:38:14.735Z,53.42
2023-05-17T05:40:42.570Z,53.52
2023-05-17T05:43:09.665Z,53.69
2023-05-17T05:45:36.797Z,53.94
2023-05-17T05:48:05.760Z,54.23
2023-05-17T05:50:34.999Z,54.49
2023-05-17T05:53:17.092Z,54.73
2023-05-17T05:55:47.839Z,54.78
2023-05-17T05:58:15.903Z,54.38
2023-05-17T06:00:43.267Z,54.28
2023-05-17T06:03:10.366Z,53.99
2023-05-17T06:05:37.446Z,53.69
2023-05-17T06:08:07.309Z,53.34
2023-05-17T06:10:34.310Z,52.53
2023-05-17T06:13:01.386Z,52.04
2023-05-17T06:15:28.940Z,51.19
2023-05-17T06:17:56.003Z,50.40
2023-05-17T06:20:23.267Z,49.57
2023-05-17T06:22:50.266Z,48.68
2023-05-17T06:25:17.296Z,47.90
2023-05-17T06:27:44.305Z,46.83
2023-05-17T06:30:11.972Z,46.07
2023-05-17T06:32:39.015Z,45.49
2023-05-17T06:35:07.161Z,44.95
2023-05-17T06:37:34.193Z,44.33
2023-05-17T06:40:15.970Z,43.84
2023-05-17T06:42:44.106Z,43.15
2023-05-17T06:45:12.468Z,42.66
2023-05-17T06:47:39.711Z,42.38
2023-05-17T06:50:07.624Z,41.59
2023-05-17T06:52:35.568Z,41.04
2023-05-17T06:55:02.654Z,40.62
2023-05-17T06:57:29.654Z,40.32
2023-05-17T06:59:56.922Z,39.92
2023-05-17T07:02:23.993Z,39.77
2023-05-17T07:04:51.308Z,39.48
2023-05-17T07:07:18.371Z,39.08
2023-05-17T07:09:45.388Z,39.15
2023-05-17T07:12:12.396Z,38.71
2023-05-17T07:14:39.383Z,37.65
2023-05-17T07:17:06.416Z,37.03
2023-05-17T07:19:34.817Z,36.77
2023-05-17T07:22:01.978Z,36.47
2023-05-17T07:24:28.989Z,36.17
2023-05-17T07:26:55.986Z,36.19
2023-05-17T07:29:22.996Z,35.82
2023-05-17T07:31:49.981Z,35.63
2023-05-17T07:34:16.986Z,35.66
2023-05-17T07:36:43.955Z,35.47
2023-05-17T07:39:10.936Z,35.31
2023-05-17T07:41:37.993Z,35.19
2023-05-17T07:44:05.321Z,35.58
2023-05-17T07:46:32.358Z,35.85
2023-05-17T07:48:59.451Z,35.99
2023-05-17T07:51:26.576Z,36.39
2023-05-17T07:53:53.639Z,36.93
2023-05-17T07:56:20.688Z,37.11
2023-05-17T07:58:47.697Z,37.34
2023-05-17T08:01:14.745Z,37.29
2023-05-17T08:03:48.388Z,37.43
2023-05-17T08:06:16.689Z,37.62
2023-05-17T08:08:44.431Z,37.63
2023-05-17T08:11:12.059Z,37.66
2023-05-17T08:13:39.150Z,37.28
2023-05-17T08:16:13.405Z,37.54
2023-05-17T08:18:45.068Z,37.64
2023-05-17T08:21:12.234Z,37.78
2023-05-17T08:23:40.622Z,38.10
2023-05-17T08:26:07.709Z,38.40
2023-05-17T08:28:34.922Z,38.54
2023-05-17T08:31:02.197Z,38.37
2023-05-17T08:33:29.271Z,38.41
2023-05-17T08:35:57.984Z,38.68
2023-05-17T08:38:25.105Z,39.04
2023-05-17T08:40:55.675Z,39.25
2023-05-17T08:43:24.223Z,39.33
2023-05-17T08:45:53.141Z,39.55
2023-05-17T08:48:20.669Z,39.88
2023-05-17T08:50:47.872Z,39.16
2023-05-17T08:53:15.195Z,38.65
2023-05-17T08:55:43.755Z,38.84
2023-05-17T08:58:10.807Z,38.96
2023-05-17T09:00:38.141Z,39.31
2023-05-17T09:03:06.494Z,39.18
2023-05-17T09:05:33.618Z,39.29
2023-05-17T09:08:00.968Z,39.07
2023-05-17T09:10:28.783Z,38.55
2023-05-17T09:12:55.968Z,38.29
2023-05-17T09:15:24.334Z,38.03
2023-05-17T09:17:54.926Z,38.19
2023-05-17T09:20:26.024Z,38.70
2023-05-17T09:22:53.088Z,39.07
2023-05-17T09:25:21.334Z,39.63
2023-05-17T09:27:48.389Z,39.99
2023-05-17T09:30:15.934Z,39.65
2023-05-17T09:32:46.510Z,39.12
2023-05-17T09:35:14.011Z,39.07
2023-05-17T09:37:41.290Z,39.69
2023-05-17T09:40:08.913Z,39.87
2023-05-17T09:42:39.592Z,39.90
2023-05-17T09:45:06.921Z,40.03
2023-05-17T09:47:37.627Z,40.02
2023-05-17T09:50:05.650Z,39.92
2023-05-17T09:52:32.793Z,39.70
2023-05-17T09:55:00.171Z,39.38
2023-05-17T09:57:28.491Z,39.63
2023-05-17T09:59:56.202Z,39.17
2023-05-17T10:02:28.857Z,39.09
2023-05-17T10:04:56.967Z,39.15
2023-05-17T10:07:26.119Z,39.10
2023-05-17T10:09:56.319Z,38.53
2023-05-17T10:12:24.318Z,38.56
2023-05-17T10:14:53.017Z,38.42
2023-05-17T10:17:20.055Z,37.64
2023-05-17T10:19:47.227Z,37.83
2023-05-17T10:22:22.593Z,37.85
2023-05-17T10:24:54.344Z,37.95
2023-05-17T10:27:21.816Z,38.38
2023-05-17T10:29:50.602Z,38.56
2023-05-17T10:32:18.246Z,38.39
2023-05-17T10:34:49.579Z,38.60
2023-05-17T10:37:25.375Z,38.66
2023-05-17T10:39:53.284Z,38.77
2023-05-17T10:42:21.808Z,39.21
2023-05-17T10:44:48.876Z,38.92
2023-05-17T10:47:15.997Z,38.82
2023-05-17T10:49:48.042Z,38.53
2023-05-17T10:52:20.496Z,38.32
2023-05-17T10:54:49.479Z,38.57
2023-05-17T11:00:11.164Z,38.96
2023-05-17T11:02:42.622Z,39.37
2023-05-17T11:05:22.895Z,40.15
2023-05-17T11:07:49.915Z,40.68
2023-05-17T11:10:18.014Z,40.92
2023-05-17T11:12:47.093Z,40.70
2023-05-17T11:15:15.360Z,41.16
2023-05-17T11:17:54.475Z,41.63
2023-05-17T11:20:28.360Z,41.93
2023-05-17T11:23:05.681Z,42.04
2023-05-17T11:25:37.096Z,42.22
2023-05-17T11:28:08.943Z,42.16
2023-05-17T11:30:41.560Z,42.56
2023-05-17T11:33:20.561Z,42.43
2023-05-17T11:35:56.056Z,42.00
2023-05-17T11:38:24.664Z,41.94
2023-05-17T11:40:55.496Z,42.07
2023-05-17T11:43:27.467Z,42.00
2023-05-17T11:45:58.675Z,42.23
2023-05-17T11:48:26.028Z,42.41
2023-05-17T11:50:55.398Z,42.39
2023-05-17T11:53:22.723Z,42.44
2023-05-17T11:55:53.012Z,42.63
2023-05-17T11:58:24.297Z,42.18
2023-05-17T12:00:54.886Z,42.01
2023-05-17T12:03:23.299Z,42.24
2023-05-17T12:06:13.308Z,40.97
2023-05-17T12:08:43.415Z,40.05
2023-05-17T12:11:14.861Z,40.01
2023-05-17T12:13:47.033Z,40.60
2023-05-17T12:16:17.755Z,39.28
2023-05-17T12:18:47.860Z,38.50
2023-05-17T12:21:15.468Z,38.66
2023-05-17T12:23:43.886Z,39.37
2023-05-17T12:26:15.505Z,39.66
2023-05-17T12:28:44.048Z,39.90
2023-05-17T12:31:13.310Z,39.92
2023-05-17T12:33:50.949Z,39.98
2023-05-17T12:36:18.114Z,40.11
2023-05-17T12:38:45.422Z,40.31
2023-05-17T12:41:13.618Z,40.37
2023-05-17T12:43:40.882Z,39.67
2023-05-17T12:46:21.520Z,38.90
2023-05-17T12:48:50.805Z,38.00
2023-05-17T12:51:19.126Z,37.48
2023-05-17T12:53:53.320Z,37.28
2023-05-17T12:56:29.953Z,36.98
2023-05-17T12:59:19.044Z,36.54
2023-05-17T13:01:50.200Z,37.08
2023-05-17T13:04:17.787Z,36.86
2023-05-17T13:06:56.613Z,37.00
2023-05-17T13:09:24.941Z,36.98
2023-05-17T13:11:51.981Z,37.33
2023-05-17T13:14:43.471Z,37.55
2023-05-17T13:17:36.496Z,38.01
2023-05-17T13:20:05.342Z,37.85
2023-05-17T13:22:33.588Z,37.79
2023-05-17T13:25:00.594Z,37.88
2023-05-17T13:27:28.240Z,37.79
2023-05-17T13:29:55.241Z,37.78
2023-05-17T13:32:22.389Z,37.95
2023-05-17T13:34:49.496Z,38.06
2023-05-17T13:37:16.584Z,37.91
2023-05-17T13:39:43.905Z,38.36
2023-05-17T13:42:11.314Z,39.40
2023-05-17T13:44:38.668Z,39.90
2023-05-17T13:47:05.957Z,40.19
2023-05-17T13:49:33.010Z,40.42
2023-05-17T13:52:00.902Z,40.37
2023-05-17T13:54:27.972Z,40.48
2023-05-17T13:56:55.733Z,40.74
2023-05-17T13:59:22.835Z,40.95
2023-05-17T14:01:49.919Z,41.06
2023-05-17T14:04:17.232Z,40.99
2023-05-17T14:06:44.885Z,40.94
2023-05-17T14:09:13.657Z,40.80
2023-05-17T14:11:40.879Z,41.02
2023-05-17T14:14:07.884Z,40.96
2023-05-17T14:16:34.883Z,41.13
2023-05-17T14:19:04.478Z,41.14
2023-05-17T14:21:31.963Z,41.33
2023-05-17T14:23:59.128Z,41.82
2023-05-17T14:26:26.797Z,41.92
2023-05-17T14:28:53.996Z,41.64
2023-05-17T14:31:21.214Z,41.70
2023-05-17T14:33:48.450Z,41.63
2023-05-17T14:36:15.808Z,41.96
2023-05-17T14:38:42.837Z,42.15
2023-05-17T14:41:09.829Z,42.55
2023-05-17T14:43:36.817Z,42.34
2023-05-17T14:46:04.251Z,42.39
2023-05-17T14:48:31.847Z,42.33
2023-05-17T14:50:58.976Z,42.49
2023-05-17T14:53:29.582Z,42.54
2023-05-17T14:55:57.451Z,42.97
2023-05-17T14:58:24.614Z,42.94
2023-05-17T15:01:05.010Z,42.95
2023-05-17T15:03:33.481Z,43.01
2023-05-17T15:06:01.714Z,43.31
2023-05-17T15:08:30.334Z,43.50
2023-05-17T15:10:58.285Z,43.79
2023-05-17T15:13:25.372Z,44.08
2023-05-17T15:15:53.122Z,44.19
2023-05-17T15:18:20.782Z,44.36
2023-05-17T15:20:47.784Z,44.71
2023-05-17T15:23:14.816Z,44.69
2023-05-17T15:25:41.848Z,44.78
2023-05-17T15:28:08.972Z,44.93
2023-05-17T15:30:35.967Z,45.11
2023-05-17T15:33:03.098Z,45.09
2023-05-17T15:35:30.532Z,45.07
2023-05-17T15:37:58.157Z,44.92
2023-05-17T15:40:25.350Z,44.22
2023-05-17T15:42:52.754Z,43.64
2023-05-17T15:45:21.550Z,43.08
2023-05-17T15:47:49.729Z,42.86
2023-05-17T15:50:16.893Z,43.13
2023-05-17T15:52:43.960Z,43.29
2023-05-17T15:55:11.277Z,43.64
2023-05-17T15:57:38.275Z,43.52
2023-05-17T16:00:06.056Z,43.42
2023-05-17T16:02:32.992Z,43.54
2023-05-17T16:05:02.618Z,43.76
2023-05-17T16:07:31.439Z,43.73
2023-05-17T16:09:58.465Z,43.89
2023-05-17T16:12:25.458Z,44.10
2023-05-17T16:14:52.516Z,44.49
2023-05-17T16:17:19.606Z,44.45
2023-05-17T16:19:46.687Z,44.45
2023-05-17T16:22:14.198Z,44.55
2023-05-17T16:24:42.039Z,44.68
2023-05-17T16:27:09.030Z,44.55
2023-05-17T16:29:40.134Z,44.44
2023-05-17T16:32:08.167Z,44.60
2023-05-17T16:34:35.967Z,44.45
2023-05-17T16:37:04.942Z,44.58
2023-05-17T16:39:32.754Z,44.60
2023-05-17T16:42:00.049Z,44.60
2023-05-17T16:44:27.089Z,44.71
2023-05-17T16:46:54.092Z,44.65
2023-05-17T16:49:21.106Z,44.77
2023-05-17T16:51:50.087Z,44.86
2023-05-17T16:54:17.104Z,45.02
2023-05-17T16:56:44.143Z,45.08
2023-05-17T16:59:11.610Z,44.94
2023-05-17T17:01:38.949Z,45.01
2023-05-17T17:04:06.309Z,44.77
2023-05-17T17:06:34.054Z,44.83
2023-05-17T17:09:01.770Z,44.72
2023-05-17T17:11:28.760Z,44.40
2023-05-17T17:13:55.776Z,44.09
2023-05-17T17:16:22.880Z,43.56
2023-05-17T17:18:50.159Z,43.23
2023-05-17T17:21:17.309Z,43.05
2023-05-17T17:23:44.628Z,43.12
2023-05-17T17:26:11.783Z,43.22
2023-05-17T17:28:38.825Z,43.30
2023-05-17T17:31:06.786Z,43.65
2023-05-17T17:33:34.296Z,43.53
2023-05-17T17:36:02.655Z,43.77
2023-05-17T17:38:29.646Z,43.74
2023-05-17T17:40:56.684Z,43.65
2023-05-17T17:43:23.730Z,43.64
2023-05-17T17:45:50.716Z,44.02
2023-05-17T17:48:17.773Z,43.92
2023-05-17T17:50:44.765Z,44.26
2023-05-17T17:53:11.776Z,44.26
2023-05-17T17:55:38.756Z,44.45
2023-05-17T17:58:05.736Z,44.56
2023-05-17T18:00:32.780Z,44.78
2023-05-17T18:02:59.817Z,45.13
2023-05-17T18:05:26.892Z,44.96
2023-05-17T18:07:54.033Z,45.08
2023-05-17T18:10:21.211Z,45.45
2023-05-17T18:12:50.266Z,45.49
2023-05-17T18:15:18.707Z,45.76
2023-05-17T18:17:45.837Z,46.00
2023-05-17T18:20:13.002Z,46.23
2023-05-17T18:22:40.043Z,46.49
2023-05-17T18:25:07.238Z,46.56
2023-05-17T18:27:35.292Z,46.65
2023-05-17T18:30:03.326Z,46.62
2023-05-17T18:32:30.760Z,46.34
2023-05-17T18:34:57.928Z,46.50
2023-05-17T18:37:25.088Z,46.74
2023-05-17T18:39:52.313Z,47.15
2023-05-17T18:42:19.701Z,47.57
2023-05-17T18:44:46.680Z,48.05
2023-05-17T18:47:13.855Z,48.28
2023-05-17T18:49:45.211Z,48.60
2023-05-17T18:52:12.565Z,48.80
2023-05-17T18:54:39.585Z,49.04
2023-05-17T18:57:06.636Z,49.23
2023-05-17T18:59:33.634Z,49.18
2023-05-17T19:02:00.729Z,49.23
2023-05-17T19:04:30.502Z,49.20
2023-05-17T19:06:58.900Z,49.20
2023-05-17T19:09:26.298Z,49.27
2023-05-17T19:11:53.419Z,49.52
2023-05-17T19:14:20.795Z,49.48
2023-05-17T19:16:50.233Z,49.37
2023-05-17T19:19:17.658Z,49.18
2023-05-17T19:21:44.686Z,49.10
2023-05-17T19:24:11.730Z,49.12
2023-05-17T19:26:38.736Z,49.14
2023-05-17T19:29:05.764Z,49.19
2023-05-17T19:31:33.088Z,49.22
2023-05-17T19:34:01.812Z,49.23
2023-05-17T19:36:28.864Z,49.26
2023-05-17T19:38:55.999Z,49.25
2023-05-17T19:41:23.162Z,49.31
2023-05-17T19:43:50.343Z,49.24
2023-05-17T19:46:17.383Z,49.24
2023-05-17T19:48:44.385Z,49.28
2023-05-17T19:51:11.382Z,49.34
2023-05-17T19:53:51.682Z,49.22
2023-05-17T19:56:19.808Z,49.24
2023-05-17T19:58:46.899Z,49.23
2023-05-17T20:01:13.912Z,49.21
2023-05-17T20:03:41.141Z,49.18
2023-05-17T20:06:11.266Z,49.27
2023-05-17T20:08:38.237Z,49.32
2023-05-17T20:11:06.207Z,49.38
2023-05-17T20:13:34.327Z,49.45
2023-05-17T20:16:01.561Z,49.53
2023-05-17T20:18:30.530Z,49.71
2023-05-17T20:20:57.612Z,49.84
2023-05-17T20:23:24.700Z,49.99
2023-05-17T20:25:51.720Z,50.22
2023-05-17T20:28:19.002Z,50.25
2023-05-17T20:30:46.433Z,50.29
2023-05-17T20:33:13.575Z,50.35
2023-05-17T20:35:40.779Z,50.45
2023-05-17T20:38:07.775Z,50.56
2023-05-17T20:40:35.653Z,50.59
2023-05-17T20:43:04.400Z,50.61
2023-05-17T20:45:32.228Z,51.12
2023-05-17T20:47:59.433Z,51.24
2023-05-17T20:50:26.716Z,51.10
2023-05-17T20:52:53.723Z,51.14
2023-05-17T20:55:20.767Z,50.81
2023-05-17T20:57:48.072Z,50.70
2023-05-17T21:00:17.174Z,50.70
2023-05-17T21:02:44.338Z,50.76
2023-05-17T21:05:11.448Z,50.71
2023-05-17T21:07:39.437Z,50.85
2023-05-17T21:10:07.616Z,50.90
2023-05-17T21:12:35.380Z,51.12
2023-05-17T21:15:15.772Z,51.49
2023-05-17T21:17:43.925Z,51.64
2023-05-17T21:20:11.802Z,51.53
2023-05-17T21:22:38.969Z,51.49
2023-05-17T21:25:06.442Z,51.51
2023-05-17T21:27:36.963Z,51.40
2023-05-17T21:30:04.166Z,51.33
2023-05-17T21:32:31.305Z,51.07
2023-05-17T21:34:59.814Z,50.88
2023-05-17T21:37:26.856Z,50.73
2023-05-17T21:39:53.895Z,50.70
2023-05-17T21:42:21.549Z,50.55
2023-05-17T21:44:48.553Z,50.52
2023-05-17T21:47:15.683Z,50.41
2023-05-17T21:49:42.689Z,50.67
2023-05-17T21:52:09.669Z,50.78
2023-05-17T21:54:36.744Z,51.00
2023-05-17T21:57:03.968Z,51.33
2023-05-17T21:59:30.944Z,51.53
2023-05-17T22:01:58.043Z,51.62
2023-05-17T22:04:25.044Z,51.86
2023-05-17T22:06:52.082Z,52.03
2023-05-17T22:09:19.623Z,52.16
2023-05-17T22:11:46.731Z,52.34
2023-05-17T22:14:13.760Z,52.37
2023-05-17T22:16:40.901Z,52.60
2023-05-17T22:19:07.985Z,52.75
2023-05-17T22:21:34.981Z,52.95
2023-05-17T22:24:02.207Z,53.15
2023-05-17T22:26:29.226Z,53.45
2023-05-17T22:28:56.783Z,53.85
2023-05-17T22:31:24.072Z,54.12
2023-05-17T22:33:53.929Z,54.27
2023-05-17T22:36:24.962Z,54.47
2023-05-17T22:38:52.168Z,54.54
2023-05-17T22:41:19.180Z,54.71
2023-05-17T22:43:46.161Z,54.88
2023-05-17T22:46:13.206Z,54.87
2023-05-17T22:48:40.687Z,54.89
2023-05-17T22:51:07.857Z,54.98
2023-05-17T22:53:34.896Z,54.95
2023-05-17T22:56:01.939Z,55.08
2023-05-17T22:58:28.924Z,55.02
2023-05-17T23:00:56.193Z,54.91
2023-05-17T23:03:23.195Z,55.00
2023-05-17T23:05:51.634Z,55.25
2023-05-17T23:08:18.678Z,55.58
2023-05-17T23:10:46.021Z,55.89
2023-05-17T23:13:13.179Z,55.93
2023-05-17T23:15:40.957Z,55.91
2023-05-17T23:18:08.207Z,55.69
2023-05-17T23:20:35.268Z,55.65
2023-05-17T23:23:02.361Z,55.44
2023-05-17T23:25:29.690Z,55.35
2023-05-17T23:27:58.236Z,55.03
2023-05-17T23:30:26.496Z,54.85
2023-05-17T23:32:55.313Z,54.70
2023-05-17T23:35:25.478Z,54.88
2023-05-17T23:37:52.495Z,55.20
2023-05-17T23:40:19.699Z,55.22
2023-05-17T23:42:46.723Z,55.27
2023-05-17T23:45:13.794Z,55.38
2023-05-17T23:47:41.200Z,55.75
2023-05-17T23:50:12.295Z,56.22
2023-05-17T23:52:39.601Z,56.71
2023-05-17T23:55:07.499Z,56.83
2023-05-17T23:57:35.436Z,56.98
